sensor_id;sensor_type;location;lat;lon;timestamp;temperature;humidity
14188;DHT22;7175;51.978;5.330;2023-02-21T00:02:45;9.30;99.90
14188;DHT22;7175;51.978;5.330;2023-02-21T00:05:30;9.20;99.90
14188;DHT22;7175;51.978;5.330;2023-02-21T00:08:17;9.30;99.90
14188;DHT22;7175;51.978;5.330;2023-02-21T00:11:03;9.20;99.90
14188;DHT22;7175;51.978;5.330;2023-02-21T00:13:49;9.20;99.90
14188;DHT22;7175;51.978;5.330;2023-02-21T00:16:35;9.30;99.90
14188;DHT22;7175;51.978;5.330;2023-02-21T00:19:20;9.20;99.90
14188;DHT22;7175;51.978;5.330;2023-02-21T00:22:06;9.20;99.90
14188;DHT22;7175;51.978;5.330;2023-02-21T00:24:52;9.20;99.90
14188;DHT22;7175;51.978;5.330;2023-02-21T00:27:38;9.20;99.90
14188;DHT22;7175;51.978;5.330;2023-02-21T00:30:23;9.20;99.90
14188;DHT22;7175;51.978;5.330;2023-02-21T00:33:09;9.20;99.90
14188;DHT22;7175;51.978;5.330;2023-02-21T00:35:55;9.20;99.90
14188;DHT22;7175;51.978;5.330;2023-02-21T00:38:40;9.20;99.90
14188;DHT22;7175;51.978;5.330;2023-02-21T00:41:27;9.20;99.90
14188;DHT22;7175;51.978;5.330;2023-02-21T00:44:13;9.20;99.90
14188;DHT22;7175;51.978;5.330;2023-02-21T00:46:59;9.20;99.90
14188;DHT22;7175;51.978;5.330;2023-02-21T00:49:44;9.20;99.90
14188;DHT22;7175;51.978;5.330;2023-02-21T00:52:29;9.20;99.90
14188;DHT22;7175;51.978;5.330;2023-02-21T00:55:15;9.20;99.90
14188;DHT22;7175;51.978;5.330;2023-02-21T00:58:02;9.20;99.90
14188;DHT22;7175;51.978;5.330;2023-02-21T01:00:48;9.20;99.90
14188;DHT22;7175;51.978;5.330;2023-02-21T01:03:33;9.20;99.90
14188;DHT22;7175;51.978;5.330;2023-02-21T01:06:19;9.20;99.90
14188;DHT22;7175;51.978;5.330;2023-02-21T01:09:04;9.20;99.90
14188;DHT22;7175;51.978;5.330;2023-02-21T01:11:50;9.20;99.90
14188;DHT22;7175;51.978;5.330;2023-02-21T01:14:36;9.20;99.90
14188;DHT22;7175;51.978;5.330;2023-02-21T01:17:22;9.20;99.90
14188;DHT22;7175;51.978;5.330;2023-02-21T01:20:08;9.10;99.90
14188;DHT22;7175;51.978;5.330;2023-02-21T01:22:54;9.10;99.90
14188;DHT22;7175;51.978;5.330;2023-02-21T01:25:39;9.10;99.90
14188;DHT22;7175;51.978;5.330;2023-02-21T01:28:25;9.10;99.90
14188;DHT22;7175;51.978;5.330;2023-02-21T01:31:16;9.10;99.90
14188;DHT22;7175;51.978;5.330;2023-02-21T01:34:02;9.10;99.90
14188;DHT22;7175;51.978;5.330;2023-02-21T01:36:47;9.10;99.90
14188;DHT22;7175;51.978;5.330;2023-02-21T01:39:33;9.10;99.90
14188;DHT22;7175;51.978;5.330;2023-02-21T01:42:18;9.10;99.90
14188;DHT22;7175;51.978;5.330;2023-02-21T01:45:39;9.10;99.90
14188;DHT22;7175;51.978;5.330;2023-02-21T01:48:28;9.00;99.90
14188;DHT22;7175;51.978;5.330;2023-02-21T01:51:17;9.10;99.90
14188;DHT22;7175;51.978;5.330;2023-02-21T01:54:05;9.00;99.90
14188;DHT22;7175;51.978;5.330;2023-02-21T01:56:52;9.00;99.90
14188;DHT22;7175;51.978;5.330;2023-02-21T01:59:38;9.00;99.90
14188;DHT22;7175;51.978;5.330;2023-02-21T02:02:28;9.00;99.90
14188;DHT22;7175;51.978;5.330;2023-02-21T02:05:17;9.00;99.90
14188;DHT22;7175;51.978;5.330;2023-02-21T02:08:02;9.00;99.90
14188;DHT22;7175;51.978;5.330;2023-02-21T02:11:00;9.00;99.90
14188;DHT22;7175;51.978;5.330;2023-02-21T02:14:01;9.00;99.90
14188;DHT22;7175;51.978;5.330;2023-02-21T02:16:39;9.00;99.90
14188;DHT22;7175;51.978;5.330;2023-02-21T02:19:35;9.00;99.90
14188;DHT22;7175;51.978;5.330;2023-02-21T02:28:48;9.00;99.90
14188;DHT22;7175;51.978;5.330;2023-02-21T02:31:36;8.90;99.90
14188;DHT22;7175;51.978;5.330;2023-02-21T02:34:45;8.90;99.90
14188;DHT22;7175;51.978;5.330;2023-02-21T02:37:21;8.90;99.90
14188;DHT22;7175;51.978;5.330;2023-02-21T02:39:56;8.90;99.90
14188;DHT22;7175;51.978;5.330;2023-02-21T02:42:36;8.80;99.90
14188;DHT22;7175;51.978;5.330;2023-02-21T02:45:11;8.80;99.90
14188;DHT22;7175;51.978;5.330;2023-02-21T02:47:43;8.80;99.90
14188;DHT22;7175;51.978;5.330;2023-02-21T02:50:14;8.80;99.90
14188;DHT22;7175;51.978;5.330;2023-02-21T02:52:52;8.80;99.90
14188;DHT22;7175;51.978;5.330;2023-02-21T02:55:29;8.80;99.90
14188;DHT22;7175;51.978;5.330;2023-02-21T02:57:59;8.80;99.90
14188;DHT22;7175;51.978;5.330;2023-02-21T03:00:28;8.90;99.90
14188;DHT22;7175;51.978;5.330;2023-02-21T03:03:20;8.80;99.90
14188;DHT22;7175;51.978;5.330;2023-02-21T03:06:05;8.90;99.90
14188;DHT22;7175;51.978;5.330;2023-02-21T03:08:43;8.90;99.90
14188;DHT22;7175;51.978;5.330;2023-02-21T03:11:16;8.90;99.90
14188;DHT22;7175;51.978;5.330;2023-02-21T03:13:48;8.80;99.90
14188;DHT22;7175;51.978;5.330;2023-02-21T03:16:22;8.80;99.90
14188;DHT22;7175;51.978;5.330;2023-02-21T03:18:55;8.90;99.90
14188;DHT22;7175;51.978;5.330;2023-02-21T03:21:28;8.90;99.90
14188;DHT22;7175;51.978;5.330;2023-02-21T03:24:00;8.90;99.90
14188;DHT22;7175;51.978;5.330;2023-02-21T03:26:32;8.90;99.90
14188;DHT22;7175;51.978;5.330;2023-02-21T03:29:02;8.90;99.90
14188;DHT22;7175;51.978;5.330;2023-02-21T03:31:35;8.90;99.90
14188;DHT22;7175;51.978;5.330;2023-02-21T03:34:06;8.90;99.90
14188;DHT22;7175;51.978;5.330;2023-02-21T03:36:37;8.90;99.90
14188;DHT22;7175;51.978;5.330;2023-02-21T03:39:05;8.90;99.90
14188;DHT22;7175;51.978;5.330;2023-02-21T03:41:33;8.90;99.90
14188;DHT22;7175;51.978;5.330;2023-02-21T03:44:01;8.90;99.90
14188;DHT22;7175;51.978;5.330;2023-02-21T03:46:29;8.80;99.90
14188;DHT22;7175;51.978;5.330;2023-02-21T03:48:57;8.80;99.90
14188;DHT22;7175;51.978;5.330;2023-02-21T03:51:25;8.80;99.90
14188;DHT22;7175;51.978;5.330;2023-02-21T03:53:55;8.80;99.90
14188;DHT22;7175;51.978;5.330;2023-02-21T03:56:23;8.80;99.90
14188;DHT22;7175;51.978;5.330;2023-02-21T03:59:06;8.80;99.90
14188;DHT22;7175;51.978;5.330;2023-02-21T04:01:34;8.80;99.90
14188;DHT22;7175;51.978;5.330;2023-02-21T04:04:02;8.80;99.90
14188;DHT22;7175;51.978;5.330;2023-02-21T04:06:30;8.80;99.90
14188;DHT22;7175;51.978;5.330;2023-02-21T04:09:00;8.80;99.90
14188;DHT22;7175;51.978;5.330;2023-02-21T04:11:28;8.80;99.90
14188;DHT22;7175;51.978;5.330;2023-02-21T04:13:57;8.80;99.90
14188;DHT22;7175;51.978;5.330;2023-02-21T04:16:25;8.80;99.90
14188;DHT22;7175;51.978;5.330;2023-02-21T04:18:53;8.70;99.90
14188;DHT22;7175;51.978;5.330;2023-02-21T04:21:22;8.70;99.90
14188;DHT22;7175;51.978;5.330;2023-02-21T04:23:51;8.70;99.90
14188;DHT22;7175;51.978;5.330;2023-02-21T04:26:20;8.80;99.90
14188;DHT22;7175;51.978;5.330;2023-02-21T04:28:50;8.70;99.90
14188;DHT22;7175;51.978;5.330;2023-02-21T04:31:18;8.70;99.90
14188;DHT22;7175;51.978;5.330;2023-02-21T04:33:46;8.80;99.90
14188;DHT22;7175;51.978;5.330;2023-02-21T04:36:17;8.70;99.90
14188;DHT22;7175;51.978;5.330;2023-02-21T04:38:45;8.70;99.90
14188;DHT22;7175;51.978;5.330;2023-02-21T04:41:13;8.70;99.90
14188;DHT22;7175;51.978;5.330;2023-02-21T04:43:43;8.70;99.90
14188;DHT22;7175;51.978;5.330;2023-02-21T04:46:13;8.70;99.90
14188;DHT22;7175;51.978;5.330;2023-02-21T04:48:42;8.70;99.90
14188;DHT22;7175;51.978;5.330;2023-02-21T04:51:11;8.70;99.90
14188;DHT22;7175;51.978;5.330;2023-02-21T04:53:41;8.70;99.90
14188;DHT22;7175;51.978;5.330;2023-02-21T04:56:10;8.70;99.90
14188;DHT22;7175;51.978;5.330;2023-02-21T04:58:38;8.70;99.90
14188;DHT22;7175;51.978;5.330;2023-02-21T05:01:13;8.70;99.90
14188;DHT22;7175;51.978;5.330;2023-02-21T05:03:42;8.70;99.90
14188;DHT22;7175;51.978;5.330;2023-02-21T05:06:16;8.70;99.90
14188;DHT22;7175;51.978;5.330;2023-02-21T05:08:44;8.70;99.90
14188;DHT22;7175;51.978;5.330;2023-02-21T05:11:12;8.70;99.90
14188;DHT22;7175;51.978;5.330;2023-02-21T05:13:41;8.70;99.90
14188;DHT22;7175;51.978;5.330;2023-02-21T05:16:09;8.70;99.90
14188;DHT22;7175;51.978;5.330;2023-02-21T05:18:40;8.70;99.90
14188;DHT22;7175;51.978;5.330;2023-02-21T05:21:08;8.70;99.90
14188;DHT22;7175;51.978;5.330;2023-02-21T05:23:38;8.70;99.90
14188;DHT22;7175;51.978;5.330;2023-02-21T05:26:08;8.70;99.90
14188;DHT22;7175;51.978;5.330;2023-02-21T05:28:36;8.70;99.90
14188;DHT22;7175;51.978;5.330;2023-02-21T05:31:05;8.70;99.90
14188;DHT22;7175;51.978;5.330;2023-02-21T05:33:34;8.70;99.90
14188;DHT22;7175;51.978;5.330;2023-02-21T05:36:04;8.70;99.90
14188;DHT22;7175;51.978;5.330;2023-02-21T05:38:32;8.70;99.90
14188;DHT22;7175;51.978;5.330;2023-02-21T05:41:10;8.70;99.90
14188;DHT22;7175;51.978;5.330;2023-02-21T05:43:38;8.70;99.90
14188;DHT22;7175;51.978;5.330;2023-02-21T05:46:07;8.70;99.90
14188;DHT22;7175;51.978;5.330;2023-02-21T05:48:35;8.70;99.90
14188;DHT22;7175;51.978;5.330;2023-02-21T05:51:04;8.70;99.90
14188;DHT22;7175;51.978;5.330;2023-02-21T05:53:32;8.70;99.90
14188;DHT22;7175;51.978;5.330;2023-02-21T05:56:00;8.80;99.90
14188;DHT22;7175;51.978;5.330;2023-02-21T05:58:29;8.80;99.90
14188;DHT22;7175;51.978;5.330;2023-02-21T06:00:57;8.70;99.90
14188;DHT22;7175;51.978;5.330;2023-02-21T06:03:25;8.80;99.90
14188;DHT22;7175;51.978;5.330;2023-02-21T06:05:53;8.80;99.90
14188;DHT22;7175;51.978;5.330;2023-02-21T06:08:22;8.70;99.90
14188;DHT22;7175;51.978;5.330;2023-02-21T06:10:51;8.80;99.90
14188;DHT22;7175;51.978;5.330;2023-02-21T06:13:19;8.70;99.90
14188;DHT22;7175;51.978;5.330;2023-02-21T06:15:47;8.70;99.90
14188;DHT22;7175;51.978;5.330;2023-02-21T06:18:16;8.80;99.90
14188;DHT22;7175;51.978;5.330;2023-02-21T06:20:44;8.80;99.90
14188;DHT22;7175;51.978;5.330;2023-02-21T06:23:12;8.80;99.90
14188;DHT22;7175;51.978;5.330;2023-02-21T06:25:41;8.80;99.90
14188;DHT22;7175;51.978;5.330;2023-02-21T06:28:09;8.80;99.90
14188;DHT22;7175;51.978;5.330;2023-02-21T06:30:37;8.80;99.90
14188;DHT22;7175;51.978;5.330;2023-02-21T06:33:06;8.80;99.90
14188;DHT22;7175;51.978;5.330;2023-02-21T06:35:34;8.80;99.90
14188;DHT22;7175;51.978;5.330;2023-02-21T06:38:02;8.80;99.90
14188;DHT22;7175;51.978;5.330;2023-02-21T06:40:30;8.80;99.90
14188;DHT22;7175;51.978;5.330;2023-02-21T06:42:59;8.80;99.90
14188;DHT22;7175;51.978;5.330;2023-02-21T06:45:28;8.80;99.90
14188;DHT22;7175;51.978;5.330;2023-02-21T06:47:56;8.80;99.90
14188;DHT22;7175;51.978;5.330;2023-02-21T06:50:24;8.80;99.90
14188;DHT22;7175;51.978;5.330;2023-02-21T06:52:52;8.80;99.90
14188;DHT22;7175;51.978;5.330;2023-02-21T06:55:20;8.80;99.90
14188;DHT22;7175;51.978;5.330;2023-02-21T06:57:51;8.80;99.90
14188;DHT22;7175;51.978;5.330;2023-02-21T07:00:21;8.80;99.90
14188;DHT22;7175;51.978;5.330;2023-02-21T07:02:49;8.80;99.90
14188;DHT22;7175;51.978;5.330;2023-02-21T07:05:18;8.80;99.90
14188;DHT22;7175;51.978;5.330;2023-02-21T07:07:46;8.80;99.90
14188;DHT22;7175;51.978;5.330;2023-02-21T07:10:14;8.80;99.90
14188;DHT22;7175;51.978;5.330;2023-02-21T07:12:42;8.80;99.90
14188;DHT22;7175;51.978;5.330;2023-02-21T07:15:10;8.80;99.90
14188;DHT22;7175;51.978;5.330;2023-02-21T07:17:39;8.80;99.90
14188;DHT22;7175;51.978;5.330;2023-02-21T07:20:09;8.80;99.90
14188;DHT22;7175;51.978;5.330;2023-02-21T07:22:37;8.80;99.90
14188;DHT22;7175;51.978;5.330;2023-02-21T07:25:05;8.80;99.90
14188;DHT22;7175;51.978;5.330;2023-02-21T07:27:33;8.80;99.90
14188;DHT22;7175;51.978;5.330;2023-02-21T07:30:02;8.80;99.90
14188;DHT22;7175;51.978;5.330;2023-02-21T07:32:30;8.80;99.90
14188;DHT22;7175;51.978;5.330;2023-02-21T07:34:59;8.80;99.90
14188;DHT22;7175;51.978;5.330;2023-02-21T07:37:28;8.80;99.90
14188;DHT22;7175;51.978;5.330;2023-02-21T07:39:56;8.80;99.90
14188;DHT22;7175;51.978;5.330;2023-02-21T07:42:24;8.80;99.90
14188;DHT22;7175;51.978;5.330;2023-02-21T07:44:54;8.80;99.90
14188;DHT22;7175;51.978;5.330;2023-02-21T07:47:24;8.80;99.90
14188;DHT22;7175;51.978;5.330;2023-02-21T07:49:52;8.80;99.90
14188;DHT22;7175;51.978;5.330;2023-02-21T07:52:22;8.80;99.90
14188;DHT22;7175;51.978;5.330;2023-02-21T07:54:50;8.80;99.90
14188;DHT22;7175;51.978;5.330;2023-02-21T07:57:18;8.80;99.90
14188;DHT22;7175;51.978;5.330;2023-02-21T07:59:47;8.80;99.90
14188;DHT22;7175;51.978;5.330;2023-02-21T08:02:15;8.80;99.90
14188;DHT22;7175;51.978;5.330;2023-02-21T08:04:43;8.80;99.90
14188;DHT22;7175;51.978;5.330;2023-02-21T08:07:11;8.80;99.90
14188;DHT22;7175;51.978;5.330;2023-02-21T08:09:40;8.80;99.90
14188;DHT22;7175;51.978;5.330;2023-02-21T08:12:09;8.80;99.90
14188;DHT22;7175;51.978;5.330;2023-02-21T08:14:37;8.80;99.90
14188;DHT22;7175;51.978;5.330;2023-02-21T08:17:05;8.80;99.90
14188;DHT22;7175;51.978;5.330;2023-02-21T08:19:33;8.80;99.90
14188;DHT22;7175;51.978;5.330;2023-02-21T08:22:01;8.80;99.90
14188;DHT22;7175;51.978;5.330;2023-02-21T08:24:29;8.80;99.90
14188;DHT22;7175;51.978;5.330;2023-02-21T08:26:59;8.90;99.90
14188;DHT22;7175;51.978;5.330;2023-02-21T08:29:27;8.90;99.90
14188;DHT22;7175;51.978;5.330;2023-02-21T08:31:55;8.90;99.90
14188;DHT22;7175;51.978;5.330;2023-02-21T08:34:23;8.90;99.90
14188;DHT22;7175;51.978;5.330;2023-02-21T08:36:51;8.90;99.90
14188;DHT22;7175;51.978;5.330;2023-02-21T08:39:21;8.90;99.90
14188;DHT22;7175;51.978;5.330;2023-02-21T08:41:51;8.90;99.90
14188;DHT22;7175;51.978;5.330;2023-02-21T08:44:20;8.90;99.90
14188;DHT22;7175;51.978;5.330;2023-02-21T08:46:48;8.90;99.90
14188;DHT22;7175;51.978;5.330;2023-02-21T08:49:17;8.90;99.90
14188;DHT22;7175;51.978;5.330;2023-02-21T08:51:45;9.00;99.90
14188;DHT22;7175;51.978;5.330;2023-02-21T08:54:13;9.00;99.90
14188;DHT22;7175;51.978;5.330;2023-02-21T08:56:41;9.00;99.90
14188;DHT22;7175;51.978;5.330;2023-02-21T08:59:09;9.00;99.90
14188;DHT22;7175;51.978;5.330;2023-02-21T09:01:39;9.00;99.90
14188;DHT22;7175;51.978;5.330;2023-02-21T09:04:08;9.00;99.90
14188;DHT22;7175;51.978;5.330;2023-02-21T09:06:36;9.00;99.90
14188;DHT22;7175;51.978;5.330;2023-02-21T09:09:04;9.00;99.90
14188;DHT22;7175;51.978;5.330;2023-02-21T09:11:32;9.00;99.90
14188;DHT22;7175;51.978;5.330;2023-02-21T09:14:00;9.00;99.90
14188;DHT22;7175;51.978;5.330;2023-02-21T09:16:32;9.10;99.90
14188;DHT22;7175;51.978;5.330;2023-02-21T09:19:01;9.10;99.90
14188;DHT22;7175;51.978;5.330;2023-02-21T09:21:33;9.20;99.90
14188;DHT22;7175;51.978;5.330;2023-02-21T09:24:02;9.10;99.90
14188;DHT22;7175;51.978;5.330;2023-02-21T09:26:31;9.20;99.90
14188;DHT22;7175;51.978;5.330;2023-02-21T09:29:01;9.20;99.90
14188;DHT22;7175;51.978;5.330;2023-02-21T09:31:30;9.10;99.90
14188;DHT22;7175;51.978;5.330;2023-02-21T09:33:58;9.20;99.90
14188;DHT22;7175;51.978;5.330;2023-02-21T09:36:28;9.20;99.90
14188;DHT22;7175;51.978;5.330;2023-02-21T09:38:57;9.20;99.90
14188;DHT22;7175;51.978;5.330;2023-02-21T09:41:26;9.20;99.90
14188;DHT22;7175;51.978;5.330;2023-02-21T09:43:55;9.20;99.90
14188;DHT22;7175;51.978;5.330;2023-02-21T09:46:34;9.20;99.90
14188;DHT22;7175;51.978;5.330;2023-02-21T09:49:09;9.20;99.90
14188;DHT22;7175;51.978;5.330;2023-02-21T09:51:42;9.30;99.90
14188;DHT22;7175;51.978;5.330;2023-02-21T09:54:16;9.30;99.90
14188;DHT22;7175;51.978;5.330;2023-02-21T09:56:47;9.30;99.90
14188;DHT22;7175;51.978;5.330;2023-02-21T09:59:16;9.30;99.90
14188;DHT22;7175;51.978;5.330;2023-02-21T10:01:52;9.40;99.90
14188;DHT22;7175;51.978;5.330;2023-02-21T10:04:31;9.30;99.90
14188;DHT22;7175;51.978;5.330;2023-02-21T10:07:12;9.30;99.90
14188;DHT22;7175;51.978;5.330;2023-02-21T10:09:45;9.30;99.90
14188;DHT22;7175;51.978;5.330;2023-02-21T10:12:23;9.40;99.90
14188;DHT22;7175;51.978;5.330;2023-02-21T10:15:08;9.40;99.90
14188;DHT22;7175;51.978;5.330;2023-02-21T10:17:46;9.40;99.90
14188;DHT22;7175;51.978;5.330;2023-02-21T10:20:25;9.40;99.90
14188;DHT22;7175;51.978;5.330;2023-02-21T10:22:56;9.40;99.90
14188;DHT22;7175;51.978;5.330;2023-02-21T10:25:28;9.40;99.90
14188;DHT22;7175;51.978;5.330;2023-02-21T10:27:59;9.50;99.90
14188;DHT22;7175;51.978;5.330;2023-02-21T10:30:31;9.50;99.90
14188;DHT22;7175;51.978;5.330;2023-02-21T10:33:02;9.50;99.90
14188;DHT22;7175;51.978;5.330;2023-02-21T10:35:33;9.50;99.90
14188;DHT22;7175;51.978;5.330;2023-02-21T10:38:05;9.50;99.90
14188;DHT22;7175;51.978;5.330;2023-02-21T10:40:37;9.50;99.90
14188;DHT22;7175;51.978;5.330;2023-02-21T10:43:11;9.50;99.90
14188;DHT22;7175;51.978;5.330;2023-02-21T10:45:46;9.60;99.90
14188;DHT22;7175;51.978;5.330;2023-02-21T10:48:19;9.50;99.90
14188;DHT22;7175;51.978;5.330;2023-02-21T10:50:50;9.60;99.90
14188;DHT22;7175;51.978;5.330;2023-02-21T10:53:26;9.60;99.90
14188;DHT22;7175;51.978;5.330;2023-02-21T10:56:20;9.60;99.90
14188;DHT22;7175;51.978;5.330;2023-02-21T10:58:52;9.60;99.90
14188;DHT22;7175;51.978;5.330;2023-02-21T11:01:31;9.60;99.90
14188;DHT22;7175;51.978;5.330;2023-02-21T11:04:01;9.60;99.90
14188;DHT22;7175;51.978;5.330;2023-02-21T11:06:33;9.60;99.90
14188;DHT22;7175;51.978;5.330;2023-02-21T11:09:23;9.70;99.90
14188;DHT22;7175;51.978;5.330;2023-02-21T11:12:00;9.70;99.90
14188;DHT22;7175;51.978;5.330;2023-02-21T11:14:29;9.80;99.90
14188;DHT22;7175;51.978;5.330;2023-02-21T11:17:12;9.70;99.90
14188;DHT22;7175;51.978;5.330;2023-02-21T11:19:43;9.70;99.90
14188;DHT22;7175;51.978;5.330;2023-02-21T11:22:12;9.70;99.90
14188;DHT22;7175;51.978;5.330;2023-02-21T11:24:56;9.70;99.90
14188;DHT22;7175;51.978;5.330;2023-02-21T11:27:28;9.70;99.90
14188;DHT22;7175;51.978;5.330;2023-02-21T11:29:57;9.80;99.90
14188;DHT22;7175;51.978;5.330;2023-02-21T11:32:30;9.70;99.90
14188;DHT22;7175;51.978;5.330;2023-02-21T11:35:02;9.80;99.90
14188;DHT22;7175;51.978;5.330;2023-02-21T11:37:31;9.70;99.90
14188;DHT22;7175;51.978;5.330;2023-02-21T11:40:01;9.70;99.90
14188;DHT22;7175;51.978;5.330;2023-02-21T11:42:33;9.70;99.90
14188;DHT22;7175;51.978;5.330;2023-02-21T11:45:16;9.80;99.90
14188;DHT22;7175;51.978;5.330;2023-02-21T11:47:55;9.80;99.90
14188;DHT22;7175;51.978;5.330;2023-02-21T11:50:26;9.80;99.90
14188;DHT22;7175;51.978;5.330;2023-02-21T11:53:01;9.80;99.90
14188;DHT22;7175;51.978;5.330;2023-02-21T11:55:32;9.80;99.90
14188;DHT22;7175;51.978;5.330;2023-02-21T11:58:08;9.80;99.90
14188;DHT22;7175;51.978;5.330;2023-02-21T12:00:45;9.80;99.90
14188;DHT22;7175;51.978;5.330;2023-02-21T12:03:48;9.90;99.90
14188;DHT22;7175;51.978;5.330;2023-02-21T12:06:27;9.90;99.90
14188;DHT22;7175;51.978;5.330;2023-02-21T12:09:00;9.90;99.90
14188;DHT22;7175;51.978;5.330;2023-02-21T12:14:36;9.90;99.90
14188;DHT22;7175;51.978;5.330;2023-02-21T12:17:17;10.00;99.90
14188;DHT22;7175;51.978;5.330;2023-02-21T12:20:02;10.00;99.90
14188;DHT22;7175;51.978;5.330;2023-02-21T12:22:47;10.00;99.90
14188;DHT22;7175;51.978;5.330;2023-02-21T12:25:25;10.10;99.90
14188;DHT22;7175;51.978;5.330;2023-02-21T12:28:02;10.10;99.90
14188;DHT22;7175;51.978;5.330;2023-02-21T12:30:43;10.10;99.90
14188;DHT22;7175;51.978;5.330;2023-02-21T12:33:25;10.10;99.90
14188;DHT22;7175;51.978;5.330;2023-02-21T12:39:14;10.10;99.90
14188;DHT22;7175;51.978;5.330;2023-02-21T12:42:06;10.10;99.90
14188;DHT22;7175;51.978;5.330;2023-02-21T12:44:48;10.10;99.90
14188;DHT22;7175;51.978;5.330;2023-02-21T12:47:21;10.10;99.90
14188;DHT22;7175;51.978;5.330;2023-02-21T12:49:56;10.20;99.90
14188;DHT22;7175;51.978;5.330;2023-02-21T12:52:29;10.10;99.90
14188;DHT22;7175;51.978;5.330;2023-02-21T12:55:02;10.20;99.90
14188;DHT22;7175;51.978;5.330;2023-02-21T12:57:35;10.20;99.90
14188;DHT22;7175;51.978;5.330;2023-02-21T13:00:17;10.20;99.90
14188;DHT22;7175;51.978;5.330;2023-02-21T13:02:57;10.20;99.90
14188;DHT22;7175;51.978;5.330;2023-02-21T13:05:35;10.10;99.90
14188;DHT22;7175;51.978;5.330;2023-02-21T13:08:13;10.20;99.90
14188;DHT22;7175;51.978;5.330;2023-02-21T13:10:52;10.20;99.90
14188;DHT22;7175;51.978;5.330;2023-02-21T13:13:26;10.20;99.90
14188;DHT22;7175;51.978;5.330;2023-02-21T13:15:58;10.10;99.90
14188;DHT22;7175;51.978;5.330;2023-02-21T13:18:31;10.10;99.90
14188;DHT22;7175;51.978;5.330;2023-02-21T13:21:07;10.10;99.90
14188;DHT22;7175;51.978;5.330;2023-02-21T13:23:46;10.20;99.90
14188;DHT22;7175;51.978;5.330;2023-02-21T13:26:51;10.20;99.90
14188;DHT22;7175;51.978;5.330;2023-02-21T13:29:25;10.20;99.90
14188;DHT22;7175;51.978;5.330;2023-02-21T13:32:01;10.10;99.90
14188;DHT22;7175;51.978;5.330;2023-02-21T13:34:37;10.10;99.90
14188;DHT22;7175;51.978;5.330;2023-02-21T13:37:13;10.20;99.90
14188;DHT22;7175;51.978;5.330;2023-02-21T13:39:45;10.20;99.90
14188;DHT22;7175;51.978;5.330;2023-02-21T13:42:16;10.20;99.90
14188;DHT22;7175;51.978;5.330;2023-02-21T13:44:48;10.10;99.90
14188;DHT22;7175;51.978;5.330;2023-02-21T13:47:20;10.10;99.90
14188;DHT22;7175;51.978;5.330;2023-02-21T13:49:53;10.10;99.90
14188;DHT22;7175;51.978;5.330;2023-02-21T13:55:27;10.10;99.90
14188;DHT22;7175;51.978;5.330;2023-02-21T14:07:54;10.10;99.90
14188;DHT22;7175;51.978;5.330;2023-02-21T14:10:28;10.10;99.90
14188;DHT22;7175;51.978;5.330;2023-02-21T14:13:00;10.10;99.90
14188;DHT22;7175;51.978;5.330;2023-02-21T14:15:40;10.10;99.90
14188;DHT22;7175;51.978;5.330;2023-02-21T14:18:20;10.10;99.90
14188;DHT22;7175;51.978;5.330;2023-02-21T14:20:51;10.10;99.90
14188;DHT22;7175;51.978;5.330;2023-02-21T14:23:30;10.20;99.90
14188;DHT22;7175;51.978;5.330;2023-02-21T14:26:02;10.20;99.90
14188;DHT22;7175;51.978;5.330;2023-02-21T14:29:00;10.10;99.90
14188;DHT22;7175;51.978;5.330;2023-02-21T14:31:48;10.10;99.90
14188;DHT22;7175;51.978;5.330;2023-02-21T14:34:22;10.00;99.90
14188;DHT22;7175;51.978;5.330;2023-02-21T14:36:55;10.00;99.90
14188;DHT22;7175;51.978;5.330;2023-02-21T14:39:32;10.10;99.90
14188;DHT22;7175;51.978;5.330;2023-02-21T14:42:19;10.10;99.90
14188;DHT22;7175;51.978;5.330;2023-02-21T14:45:14;10.00;99.90
14188;DHT22;7175;51.978;5.330;2023-02-21T14:48:00;10.00;99.90
14188;DHT22;7175;51.978;5.330;2023-02-21T14:50:41;10.00;99.90
14188;DHT22;7175;51.978;5.330;2023-02-21T14:56:44;10.00;99.90
14188;DHT22;7175;51.978;5.330;2023-02-21T14:59:30;10.00;99.90
14188;DHT22;7175;51.978;5.330;2023-02-21T15:02:21;10.00;99.90
14188;DHT22;7175;51.978;5.330;2023-02-21T15:04:57;10.00;99.90
14188;DHT22;7175;51.978;5.330;2023-02-21T15:07:31;10.00;99.90
14188;DHT22;7175;51.978;5.330;2023-02-21T15:10:13;10.00;99.90
14188;DHT22;7175;51.978;5.330;2023-02-21T15:12:46;10.00;99.90
14188;DHT22;7175;51.978;5.330;2023-02-21T15:15:18;10.00;99.90
14188;DHT22;7175;51.978;5.330;2023-02-21T15:18:03;10.00;99.90
14188;DHT22;7175;51.978;5.330;2023-02-21T15:20:33;10.00;99.90
14188;DHT22;7175;51.978;5.330;2023-02-21T15:23:09;10.00;99.90
14188;DHT22;7175;51.978;5.330;2023-02-21T15:25:38;10.00;99.90
14188;DHT22;7175;51.978;5.330;2023-02-21T15:28:19;10.00;99.90
14188;DHT22;7175;51.978;5.330;2023-02-21T15:30:57;10.00;99.90
14188;DHT22;7175;51.978;5.330;2023-02-21T15:33:27;10.00;99.90
14188;DHT22;7175;51.978;5.330;2023-02-21T15:35:59;10.00;99.90
14188;DHT22;7175;51.978;5.330;2023-02-21T15:38:31;9.90;99.90
14188;DHT22;7175;51.978;5.330;2023-02-21T15:41:04;9.90;99.90
14188;DHT22;7175;51.978;5.330;2023-02-21T15:43:40;9.90;99.90
14188;DHT22;7175;51.978;5.330;2023-02-21T15:46:13;9.90;99.90
14188;DHT22;7175;51.978;5.330;2023-02-21T15:48:42;9.90;99.90
14188;DHT22;7175;51.978;5.330;2023-02-21T15:51:11;9.90;99.90
14188;DHT22;7175;51.978;5.330;2023-02-21T15:53:40;9.90;99.90
14188;DHT22;7175;51.978;5.330;2023-02-21T15:56:20;9.90;99.90
14188;DHT22;7175;51.978;5.330;2023-02-21T15:59:09;9.90;99.90
14188;DHT22;7175;51.978;5.330;2023-02-21T16:01:38;9.90;99.90
14188;DHT22;7175;51.978;5.330;2023-02-21T16:04:21;9.90;99.90
14188;DHT22;7175;51.978;5.330;2023-02-21T16:06:52;9.90;99.90
14188;DHT22;7175;51.978;5.330;2023-02-21T16:09:24;9.90;99.90
14188;DHT22;7175;51.978;5.330;2023-02-21T16:11:58;9.90;99.90
14188;DHT22;7175;51.978;5.330;2023-02-21T16:14:37;9.90;99.90
14188;DHT22;7175;51.978;5.330;2023-02-21T16:17:19;9.80;99.90
14188;DHT22;7175;51.978;5.330;2023-02-21T16:19:52;9.80;99.90
14188;DHT22;7175;51.978;5.330;2023-02-21T16:22:29;9.80;99.90
14188;DHT22;7175;51.978;5.330;2023-02-21T16:25:15;9.70;99.90
14188;DHT22;7175;51.978;5.330;2023-02-21T16:27:47;9.70;99.90
14188;DHT22;7175;51.978;5.330;2023-02-21T16:30:19;9.70;99.90
14188;DHT22;7175;51.978;5.330;2023-02-21T16:32:48;9.70;99.90
14188;DHT22;7175;51.978;5.330;2023-02-21T16:35:19;9.60;99.90
14188;DHT22;7175;51.978;5.330;2023-02-21T16:37:49;9.70;99.90
14188;DHT22;7175;51.978;5.330;2023-02-21T16:40:21;9.60;99.90
14188;DHT22;7175;51.978;5.330;2023-02-21T16:42:51;9.50;99.90
14188;DHT22;7175;51.978;5.330;2023-02-21T16:45:22;9.50;99.90
14188;DHT22;7175;51.978;5.330;2023-02-21T16:47:55;9.50;99.90
14188;DHT22;7175;51.978;5.330;2023-02-21T16:50:28;9.50;99.90
14188;DHT22;7175;51.978;5.330;2023-02-21T16:52:56;9.50;99.90
14188;DHT22;7175;51.978;5.330;2023-02-21T16:55:25;9.50;99.90
14188;DHT22;7175;51.978;5.330;2023-02-21T16:57:55;9.40;99.90
14188;DHT22;7175;51.978;5.330;2023-02-21T17:00:26;9.40;99.90
14188;DHT22;7175;51.978;5.330;2023-02-21T17:02:54;9.40;99.90
14188;DHT22;7175;51.978;5.330;2023-02-21T17:05:22;9.40;99.90
14188;DHT22;7175;51.978;5.330;2023-02-21T17:07:52;9.30;99.90
14188;DHT22;7175;51.978;5.330;2023-02-21T17:10:21;9.30;99.90
14188;DHT22;7175;51.978;5.330;2023-02-21T17:12:49;9.30;99.90
14188;DHT22;7175;51.978;5.330;2023-02-21T17:15:17;9.30;99.90
14188;DHT22;7175;51.978;5.330;2023-02-21T17:17:48;9.30;99.90